createdAt,value
2023-05-21T00:01:03.980Z,17.82
2023-05-21T00:03:30.762Z,17.84
2023-05-21T00:05:57.535Z,17.87
2023-05-21T00:08:24.280Z,17.84
2023-05-21T00:10:50.992Z,17.82
2023-05-21T00:13:17.700Z,17.77
2023-05-21T00:15:44.406Z,17.79
2023-05-21T00:18:11.138Z,17.77
2023-05-21T00:20:37.867Z,17.81
2023-05-21T00:23:04.588Z,17.83
2023-05-21T00:25:31.374Z,17.79
2023-05-21T00:27:58.079Z,17.80
2023-05-21T00:30:24.749Z,17.80
2023-05-21T00:32:51.456Z,17.75
2023-05-21T00:35:18.179Z,17.77
2023-05-21T00:37:44.825Z,17.75
2023-05-21T00:40:11.553Z,17.67
2023-05-21T00:42:38.229Z,17.73
2023-05-21T00:45:05.838Z,17.68
2023-05-21T00:47:32.646Z,17.63
2023-05-21T00:49:59.363Z,17.62
2023-05-21T00:52:26.016Z,17.60
2023-05-21T00:54:52.650Z,17.63
2023-05-21T00:57:19.383Z,17.64
2023-05-21T00:59:46.816Z,17.58
2023-05-21T01:02:13.642Z,17.52
2023-05-21T01:04:40.440Z,17.38
2023-05-21T01:07:07.136Z,17.27
2023-05-21T01:09:33.800Z,17.19
2023-05-21T01:12:00.493Z,17.16
2023-05-21T01:14:29.268Z,17.24
2023-05-21T01:16:56.003Z,17.31
2023-05-21T01:19:22.783Z,17.37
2023-05-21T01:21:50.961Z,17.40
2023-05-21T01:24:17.609Z,17.42
2023-05-21T01:26:44.355Z,17.36
2023-05-21T01:29:11.044Z,17.39
2023-05-21T01:31:51.427Z,17.39
2023-05-21T01:34:18.618Z,17.31
2023-05-21T01:36:52.050Z,17.18
2023-05-21T01:39:22.843Z,17.08
2023-05-21T01:41:49.515Z,17.09
2023-05-21T01:44:16.228Z,17.15
2023-05-21T01:46:42.979Z,17.13
2023-05-21T01:49:09.728Z,17.14
2023-05-21T01:51:36.450Z,17.05
2023-05-21T01:54:03.208Z,16.96
2023-05-21T01:56:29.916Z,16.85
2023-05-21T01:58:56.593Z,16.78
2023-05-21T02:01:23.274Z,16.73
2023-05-21T02:03:50.022Z,16.64
2023-05-21T02:06:16.711Z,16.68
2023-05-21T02:08:43.391Z,16.63
2023-05-21T02:11:10.085Z,16.62
2023-05-21T02:13:36.730Z,16.64
2023-05-21T02:16:03.370Z,16.62
2023-05-21T02:18:30.059Z,16.72
2023-05-21T02:20:56.860Z,16.78
2023-05-21T02:23:23.582Z,16.72
2023-05-21T02:25:50.246Z,16.69
2023-05-21T02:28:16.952Z,16.73
2023-05-21T02:30:43.633Z,16.80
2023-05-21T02:33:10.340Z,16.80
2023-05-21T02:35:37.218Z,16.79
2023-05-21T02:38:04.078Z,16.81
2023-05-21T02:40:30.773Z,16.82
2023-05-21T02:42:57.438Z,16.74
2023-05-21T02:45:24.105Z,16.72
2023-05-21T02:47:50.772Z,16.67
2023-05-21T02:50:17.511Z,16.61
2023-05-21T02:52:44.165Z,16.64
2023-05-21T02:55:10.795Z,16.67
2023-05-21T02:57:37.428Z,16.71
2023-05-21T03:00:04.369Z,16.69
2023-05-21T03:02:31.145Z,16.62
2023-05-21T03:04:57.836Z,16.60
2023-05-21T03:07:24.529Z,16.60
2023-05-21T03:09:51.181Z,16.56
2023-05-21T03:12:17.868Z,16.56
2023-05-21T03:14:44.521Z,16.60
2023-05-21T03:17:12.327Z,16.65
2023-05-21T03:19:39.072Z,16.63
2023-05-21T03:22:05.776Z,16.58
2023-05-21T03:24:32.441Z,16.57
2023-05-21T03:26:59.600Z,16.51
2023-05-21T03:29:26.317Z,16.48
2023-05-21T03:31:53.201Z,16.49
2023-05-21T03:34:19.958Z,16.50
2023-05-21T03:36:47.152Z,16.51
2023-05-21T03:39:13.786Z,16.53
2023-05-21T03:41:40.511Z,16.44
2023-05-21T03:44:07.160Z,16.39
2023-05-21T03:46:33.898Z,16.43
2023-05-21T03:49:00.573Z,16.38
2023-05-21T03:51:27.227Z,16.28
2023-05-21T03:53:53.857Z,16.29
2023-05-21T03:56:20.532Z,16.30
2023-05-21T03:58:47.176Z,16.32
2023-05-21T04:01:13.877Z,16.36
2023-05-21T04:03:41.035Z,16.43
2023-05-21T04:06:08.725Z,16.45
2023-05-21T04:08:35.555Z,16.47
2023-05-21T04:11:02.340Z,16.48
2023-05-21T04:13:28.998Z,16.48
2023-05-21T04:15:55.691Z,16.50
2023-05-21T04:18:22.422Z,16.47
2023-05-21T04:20:49.199Z,16.39
2023-05-21T04:23:15.921Z,16.35
2023-05-21T04:25:42.581Z,16.38
2023-05-21T04:28:09.223Z,16.39
2023-05-21T04:30:35.964Z,16.45
2023-05-21T04:33:03.169Z,16.43
2023-05-21T04:35:30.020Z,16.44
2023-05-21T04:37:56.700Z,16.55
2023-05-21T04:40:23.350Z,16.60
2023-05-21T04:42:50.594Z,16.60
2023-05-21T04:45:17.240Z,16.59
2023-05-21T04:47:44.001Z,16.63
2023-05-21T04:50:10.705Z,16.61
2023-05-21T04:52:37.395Z,16.58
2023-05-21T04:55:04.293Z,16.59
2023-05-21T04:57:31.000Z,16.61
2023-05-21T04:59:57.722Z,16.65
2023-05-21T05:02:24.390Z,16.66
2023-05-21T05:04:51.232Z,16.71
2023-05-21T05:07:17.919Z,16.78
2023-05-21T05:09:44.559Z,16.84
2023-05-21T05:12:11.188Z,16.92
2023-05-21T05:14:37.820Z,16.98
2023-05-21T05:17:04.713Z,17.03
2023-05-21T05:19:31.416Z,17.14
2023-05-21T05:21:58.063Z,17.20
2023-05-21T05:24:24.732Z,17.34
2023-05-21T05:26:51.373Z,17.41
2023-05-21T05:29:19.230Z,17.49
2023-05-21T05:31:45.936Z,17.58
2023-05-21T05:34:12.648Z,17.69
2023-05-21T05:36:39.325Z,17.71
2023-05-21T05:39:06.018Z,17.75
2023-05-21T05:41:32.723Z,17.84
2023-05-21T05:43:59.415Z,17.90
2023-05-21T05:46:26.141Z,17.90
2023-05-21T05:48:52.812Z,17.90
2023-05-21T05:51:19.609Z,17.96
2023-05-21T05:53:47.501Z,18.01
2023-05-21T05:56:14.122Z,18.06
2023-05-21T05:58:40.819Z,18.09
2023-05-21T06:01:07.548Z,18.10
2023-05-21T06:03:34.367Z,18.17
2023-05-21T06:06:01.182Z,18.30
2023-05-21T06:08:27.897Z,18.39
2023-05-21T06:10:54.590Z,18.41
2023-05-21T06:13:21.250Z,18.50
2023-05-21T06:15:47.953Z,18.62
2023-05-21T06:18:14.628Z,18.70
2023-05-21T06:20:41.351Z,18.75
2023-05-21T06:23:07.992Z,18.86
2023-05-21T06:25:34.893Z,18.89
2023-05-21T06:28:01.752Z,18.94
2023-05-21T06:30:28.501Z,18.95
2023-05-21T06:32:55.300Z,18.99
2023-05-21T06:35:22.039Z,19.05
2023-05-21T06:37:48.737Z,19.08
2023-05-21T06:40:15.474Z,19.06
2023-05-21T06:42:42.180Z,19.03
2023-05-21T06:45:09.284Z,19.07
2023-05-21T06:47:35.981Z,19.04
2023-05-21T06:50:02.715Z,19.00
2023-05-21T06:52:29.552Z,19.15
2023-05-21T06:54:56.227Z,19.22
2023-05-21T06:57:22.873Z,19.24
2023-05-21T06:59:49.553Z,19.23
2023-05-21T07:02:16.238Z,19.37
2023-05-21T07:04:42.893Z,19.44
2023-05-21T07:07:09.536Z,19.56
2023-05-21T07:09:36.219Z,19.63
2023-05-21T07:12:02.870Z,19.74
2023-05-21T07:14:29.498Z,19.88
2023-05-21T07:16:56.207Z,19.97
2023-05-21T07:19:22.975Z,20.02
2023-05-21T07:21:49.732Z,20.05
2023-05-21T07:24:16.454Z,20.10
2023-05-21T07:26:43.156Z,20.18
2023-05-21T07:29:09.837Z,20.28
2023-05-21T07:31:36.628Z,20.31
2023-05-21T07:34:03.362Z,20.33
2023-05-21T07:36:30.074Z,20.32
2023-05-21T07:38:56.756Z,19.79
2023-05-21T07:41:23.430Z,19.68
2023-05-21T07:43:50.095Z,19.82
2023-05-21T07:46:16.886Z,19.79
2023-05-21T07:48:43.573Z,19.88
2023-05-21T07:51:10.732Z,20.03
2023-05-21T07:53:37.379Z,20.16
2023-05-21T07:56:04.112Z,20.34
2023-05-21T07:58:30.782Z,20.48
2023-05-21T08:00:57.488Z,20.58
2023-05-21T08:03:26.101Z,20.62
2023-05-21T08:05:52.842Z,20.64
2023-05-21T08:08:19.746Z,20.63
2023-05-21T08:10:46.517Z,20.66
2023-05-21T08:13:13.161Z,20.65
2023-05-21T08:15:39.838Z,20.72
2023-05-21T08:18:06.591Z,20.78
2023-05-21T08:20:33.430Z,20.90
2023-05-21T08:23:00.197Z,20.95
2023-05-21T08:25:27.230Z,20.96
2023-05-21T08:27:54.017Z,21.00
2023-05-21T08:30:20.798Z,21.02
2023-05-21T08:32:48.114Z,21.01
2023-05-21T08:35:14.855Z,20.93
2023-05-21T08:37:41.535Z,20.95
2023-05-21T08:40:08.646Z,20.94
2023-05-21T08:42:48.217Z,20.99
2023-05-21T08:45:17.211Z,21.02
2023-05-21T08:47:44.013Z,21.12
2023-05-21T08:50:12.025Z,21.08
2023-05-21T08:52:38.807Z,21.11
2023-05-21T08:55:05.880Z,21.11
2023-05-21T08:57:32.586Z,21.14
2023-05-21T08:59:59.630Z,21.14
2023-05-21T09:02:26.574Z,21.13
2023-05-21T09:04:53.564Z,21.12
2023-05-21T09:07:20.234Z,21.07
2023-05-21T09:09:56.124Z,21.20
2023-05-21T09:12:23.756Z,21.19
2023-05-21T09:14:50.400Z,21.26
2023-05-21T09:17:17.098Z,21.18
2023-05-21T09:20:25.440Z,21.27
2023-05-21T09:22:52.229Z,21.43
2023-05-21T09:25:26.422Z,21.57
2023-05-21T09:27:53.072Z,21.62
2023-05-21T09:30:23.573Z,21.70
2023-05-21T09:32:53.591Z,21.80
2023-05-21T09:35:20.272Z,21.80
2023-05-21T09:37:51.013Z,21.85
2023-05-21T09:40:18.876Z,21.84
2023-05-21T09:42:46.197Z,21.84
2023-05-21T09:45:12.968Z,21.90
2023-05-21T09:47:42.742Z,21.96
2023-05-21T09:50:10.930Z,21.88
2023-05-21T09:52:39.111Z,21.76
2023-05-21T09:55:07.045Z,21.76
2023-05-21T09:57:33.743Z,21.74
2023-05-21T10:00:00.438Z,21.67
2023-05-21T10:02:27.189Z,21.68
2023-05-21T10:04:53.996Z,21.60
2023-05-21T10:07:21.789Z,21.63
2023-05-21T10:09:48.458Z,21.46
2023-05-21T10:12:16.503Z,21.52
2023-05-21T10:14:43.198Z,21.55
2023-05-21T10:17:09.975Z,21.49
2023-05-21T10:19:36.674Z,21.53
2023-05-21T10:22:03.381Z,21.62
2023-05-21T10:24:30.085Z,21.65
2023-05-21T10:26:56.753Z,21.60
2023-05-21T10:29:23.397Z,21.53
2023-05-21T10:31:50.242Z,21.67
2023-05-21T10:34:16.938Z,21.70
2023-05-21T10:36:43.752Z,21.78
2023-05-21T10:39:10.520Z,21.69
2023-05-21T10:42:01.119Z,21.83
2023-05-21T10:44:27.735Z,21.93
2023-05-21T10:47:09.278Z,22.05
2023-05-21T10:50:00.767Z,22.06
2023-05-21T10:53:02.762Z,22.10
2023-05-21T10:55:43.028Z,22.15
2023-05-21T10:58:09.589Z,22.24
2023-05-21T11:00:36.445Z,22.31
2023-05-21T11:03:03.548Z,22.43
2023-05-21T11:05:52.301Z,22.50
2023-05-21T11:08:29.021Z,22.40
2023-05-21T11:10:56.178Z,22.57
2023-05-21T11:13:22.856Z,22.65
2023-05-21T11:15:58.250Z,22.64
2023-05-21T11:18:30.670Z,22.81
2023-05-21T11:21:07.049Z,22.81
2023-05-21T11:23:51.971Z,22.34
2023-05-21T11:26:19.027Z,22.44
2023-05-21T11:28:45.756Z,22.58
2023-05-21T11:31:25.004Z,22.69
2023-05-21T11:34:19.811Z,22.77
2023-05-21T11:36:47.171Z,22.81
2023-05-21T11:39:13.694Z,23.00
2023-05-21T11:41:53.598Z,23.12
2023-05-21T11:44:38.240Z,23.12
2023-05-21T11:47:05.009Z,23.30
2023-05-21T11:49:31.750Z,23.35
2023-05-21T11:52:01.382Z,23.38
2023-05-21T11:54:28.546Z,23.27
2023-05-21T11:56:55.243Z,23.43
2023-05-21T11:59:21.947Z,23.49
2023-05-21T12:01:48.616Z,23.48
2023-05-21T12:04:15.267Z,23.63
2023-05-21T12:06:44.982Z,23.74
2023-05-21T12:09:11.985Z,23.65
2023-05-21T12:11:38.828Z,23.74
2023-05-21T12:14:09.578Z,23.87
2023-05-21T12:16:36.391Z,23.89
2023-05-21T12:19:03.539Z,23.90
2023-05-21T12:21:30.324Z,23.94
2023-05-21T12:23:56.998Z,23.93
2023-05-21T12:26:24.305Z,23.96
2023-05-21T12:28:52.360Z,23.88
2023-05-21T12:31:19.947Z,23.86
2023-05-21T12:33:49.886Z,23.88
2023-05-21T12:36:23.228Z,23.87
2023-05-21T12:38:50.481Z,23.83
2023-05-21T12:41:17.600Z,23.78
2023-05-21T12:43:44.870Z,23.71
2023-05-21T12:46:12.003Z,23.77
2023-05-21T12:48:38.710Z,23.75
2023-05-21T12:51:05.416Z,23.81
2023-05-21T12:53:37.960Z,23.81
2023-05-21T12:56:11.359Z,23.75
2023-05-21T12:58:38.062Z,23.80
2023-05-21T13:01:07.598Z,23.84
2023-05-21T13:03:34.619Z,23.90
2023-05-21T13:06:01.836Z,23.85
2023-05-21T13:08:28.870Z,23.87
2023-05-21T13:10:55.672Z,23.94
2023-05-21T13:13:22.486Z,24.03
2023-05-21T13:15:49.237Z,24.13
2023-05-21T13:18:16.105Z,24.14
2023-05-21T13:20:42.902Z,24.25
2023-05-21T13:23:11.422Z,24.26
2023-05-21T13:25:38.587Z,24.42
2023-05-21T13:28:05.234Z,24.51
2023-05-21T13:30:32.120Z,24.61
2023-05-21T13:32:58.941Z,24.69
2023-05-21T13:35:25.750Z,24.81
2023-05-21T13:37:53.220Z,24.98
2023-05-21T13:40:19.970Z,25.16
2023-05-21T13:42:47.915Z,25.15
2023-05-21T13:45:15.939Z,25.23
2023-05-21T13:47:42.914Z,25.23
2023-05-21T13:50:09.872Z,25.14
2023-05-21T13:52:37.129Z,25.02
2023-05-21T13:55:04.032Z,24.90
2023-05-21T13:57:30.732Z,24.75
2023-05-21T13:59:57.922Z,24.99
2023-05-21T14:02:24.722Z,24.92
2023-05-21T14:04:51.551Z,25.04
2023-05-21T14:07:18.275Z,25.03
2023-05-21T14:09:45.030Z,25.19
2023-05-21T14:12:11.728Z,25.26
2023-05-21T14:14:38.473Z,25.21
2023-05-21T14:17:05.817Z,25.34
2023-05-21T14:19:32.632Z,25.24
2023-05-21T14:21:59.367Z,25.22
2023-05-21T14:24:26.260Z,25.19
2023-05-21T14:26:52.973Z,25.14
2023-05-21T14:29:19.693Z,25.13
2023-05-21T14:31:46.486Z,25.14
2023-05-21T14:34:13.211Z,25.24
2023-05-21T14:36:39.879Z,25.33
2023-05-21T14:39:06.527Z,25.34
2023-05-21T14:41:33.218Z,25.44
2023-05-21T14:43:59.886Z,25.67
2023-05-21T14:46:26.592Z,25.72
2023-05-21T14:48:53.277Z,25.76
2023-05-21T14:51:19.988Z,26.15
2023-05-21T14:53:46.733Z,26.42
2023-05-21T14:56:13.367Z,26.65
2023-05-21T14:58:40.115Z,27.06
2023-05-21T15:01:07.009Z,27.35
2023-05-21T15:03:33.894Z,27.24
2023-05-21T15:06:00.697Z,27.14
2023-05-21T15:08:27.414Z,27.14
2023-05-21T15:10:54.061Z,27.27
2023-05-21T15:13:20.720Z,27.55
2023-05-21T15:15:47.434Z,27.91
2023-05-21T15:18:14.224Z,28.24
2023-05-21T15:20:40.876Z,28.33
2023-05-21T15:23:15.864Z,28.61
2023-05-21T15:25:43.227Z,28.96
2023-05-21T15:28:09.877Z,29.19
2023-05-21T15:30:36.529Z,29.42
2023-05-21T15:33:03.211Z,29.41
2023-05-21T15:35:30.121Z,29.20
2023-05-21T15:37:56.928Z,29.48
2023-05-21T15:40:26.150Z,29.61
2023-05-21T15:42:53.659Z,29.76
2023-05-21T15:45:20.389Z,30.01
2023-05-21T15:47:47.300Z,30.14
2023-05-21T15:50:14.059Z,30.16
2023-05-21T15:52:41.552Z,30.17
2023-05-21T15:55:08.646Z,30.09
2023-05-21T15:57:35.323Z,30.04
2023-05-21T16:00:02.147Z,30.00
2023-05-21T16:02:28.999Z,30.11
2023-05-21T16:04:55.691Z,30.24
2023-05-21T16:07:23.267Z,30.22
2023-05-21T16:09:49.909Z,30.33
2023-05-21T16:12:16.644Z,30.48
2023-05-21T16:14:43.321Z,30.25
2023-05-21T16:17:10.170Z,30.29
2023-05-21T16:19:37.072Z,30.75
2023-05-21T16:22:03.990Z,31.14
2023-05-21T16:24:32.150Z,31.45
2023-05-21T16:26:58.846Z,31.83
2023-05-21T16:29:25.551Z,32.14
2023-05-21T16:31:52.416Z,32.05
2023-05-21T16:34:19.137Z,31.90
2023-05-21T16:36:46.071Z,32.13
2023-05-21T16:39:12.981Z,31.96
2023-05-21T16:41:39.717Z,32.01
2023-05-21T16:44:06.396Z,31.70
2023-05-21T16:46:33.245Z,30.95
2023-05-21T16:49:00.153Z,30.29
2023-05-21T16:51:26.842Z,30.28
2023-05-21T16:53:53.517Z,30.33
2023-05-21T16:56:20.359Z,29.99
2023-05-21T16:58:47.091Z,29.37
2023-05-21T17:01:13.893Z,28.46
2023-05-21T17:03:43.080Z,27.79
2023-05-21T17:06:10.179Z,27.29
2023-05-21T17:08:36.835Z,26.93
2023-05-21T17:11:03.608Z,26.54
2023-05-21T17:13:30.540Z,26.25
2023-05-21T17:15:57.286Z,26.08
2023-05-21T17:18:24.068Z,25.98
2023-05-21T17:20:50.759Z,25.90
2023-05-21T17:23:17.699Z,25.82
2023-05-21T17:25:44.406Z,25.78
2023-05-21T17:28:11.150Z,25.68
2023-05-21T17:30:37.879Z,25.65
2023-05-21T17:33:04.578Z,25.55
2023-05-21T17:35:31.258Z,25.56
2023-05-21T17:37:57.917Z,25.47
2023-05-21T17:40:24.959Z,25.44
2023-05-21T17:42:52.560Z,25.34
2023-05-21T17:45:21.216Z,25.26
2023-05-21T17:47:47.881Z,25.13
2023-05-21T17:50:14.895Z,25.11
2023-05-21T17:52:41.673Z,25.06
2023-05-21T17:55:08.874Z,24.97
2023-05-21T17:57:35.703Z,24.95
2023-05-21T18:00:03.699Z,24.79
2023-05-21T18:02:30.639Z,24.65
2023-05-21T18:04:57.761Z,24.60
2023-05-21T18:07:24.412Z,24.55
2023-05-21T18:09:51.235Z,24.39
2023-05-21T18:12:18.000Z,24.22
2023-05-21T18:14:44.735Z,24.09
2023-05-21T18:17:11.493Z,23.93
2023-05-21T18:19:38.219Z,23.84
2023-05-21T18:22:05.056Z,23.78
2023-05-21T18:24:31.819Z,23.52
2023-05-21T18:26:58.589Z,23.40
2023-05-21T18:29:25.271Z,23.31
2023-05-21T18:31:51.946Z,23.28
2023-05-21T18:34:18.892Z,23.32
2023-05-21T18:36:45.539Z,23.26
2023-05-21T18:39:12.185Z,23.23
2023-05-21T18:41:39.180Z,23.24
2023-05-21T18:44:06.050Z,23.14
2023-05-21T18:46:32.933Z,23.08
2023-05-21T18:48:59.648Z,23.05
2023-05-21T18:51:26.298Z,22.96
2023-05-21T18:53:53.217Z,22.86
2023-05-21T18:56:19.863Z,22.81
2023-05-21T18:58:46.504Z,22.74
2023-05-21T19:01:13.150Z,22.62
2023-05-21T19:03:39.798Z,22.55
2023-05-21T19:06:06.420Z,22.60
2023-05-21T19:08:33.395Z,22.53
2023-05-21T19:11:00.176Z,22.47
2023-05-21T19:13:26.823Z,22.39
2023-05-21T19:15:53.578Z,22.41
2023-05-21T19:18:20.226Z,22.30
2023-05-21T19:20:46.937Z,22.35
2023-05-21T19:23:13.611Z,22.38
2023-05-21T19:25:40.239Z,22.34
2023-05-21T19:28:06.937Z,22.35
2023-05-21T19:30:33.603Z,22.28
2023-05-21T19:33:00.361Z,22.27
2023-05-21T19:35:27.088Z,22.27
2023-05-21T19:37:53.827Z,22.25
2023-05-21T19:40:20.585Z,22.19
2023-05-21T19:42:47.349Z,22.28
2023-05-21T19:45:14.134Z,22.29
2023-05-21T19:47:41.072Z,22.30
2023-05-21T19:50:09.253Z,22.30
2023-05-21T19:52:36.909Z,22.32
2023-05-21T19:55:03.759Z,22.33
2023-05-21T19:57:33.767Z,22.32
2023-05-21T20:00:00.561Z,22.27
2023-05-21T20:02:27.271Z,22.25
2023-05-21T20:04:54.167Z,22.25
2023-05-21T20:07:20.865Z,22.25
2023-05-21T20:09:47.572Z,22.23
2023-05-21T20:12:14.434Z,22.07
2023-05-21T20:14:41.133Z,22.07
2023-05-21T20:17:08.190Z,22.12
2023-05-21T20:19:35.104Z,22.12
2023-05-21T20:22:01.876Z,22.05
2023-05-21T20:24:28.590Z,22.05
2023-05-21T20:26:55.310Z,21.97
2023-05-21T20:29:22.014Z,21.98
2023-05-21T20:31:48.940Z,21.97
2023-05-21T20:34:15.608Z,21.92
2023-05-21T20:36:42.316Z,21.91
2023-05-21T20:39:09.050Z,21.87
2023-05-21T20:41:35.778Z,21.88
2023-05-21T20:44:03.061Z,21.83
2023-05-21T20:46:29.969Z,21.85
2023-05-21T20:48:56.736Z,21.77
2023-05-21T20:51:23.530Z,21.80
2023-05-21T20:53:50.231Z,21.84
2023-05-21T20:56:21.775Z,21.84
2023-05-21T20:58:53.383Z,21.79
2023-05-21T21:01:20.140Z,21.67
2023-05-21T21:03:46.966Z,21.66
2023-05-21T21:06:14.244Z,21.71
2023-05-21T21:08:40.869Z,21.67
2023-05-21T21:11:08.253Z,21.65
2023-05-21T21:13:35.425Z,21.64
2023-05-21T21:16:02.642Z,21.57
2023-05-21T21:18:29.420Z,21.47
2023-05-21T21:20:56.078Z,21.54
2023-05-21T21:23:28.128Z,21.48
2023-05-21T21:25:54.820Z,21.52
2023-05-21T21:28:21.453Z,21.53
2023-05-21T21:30:48.076Z,21.42
2023-05-21T21:33:14.939Z,21.46
2023-05-21T21:35:41.685Z,21.37
2023-05-21T21:38:08.315Z,21.33
2023-05-21T21:40:34.945Z,21.18
2023-05-21T21:43:01.613Z,21.19
2023-05-21T21:45:28.300Z,21.19
2023-05-21T21:47:54.968Z,21.23
2023-05-21T21:50:21.662Z,21.23
2023-05-21T21:52:48.395Z,21.16
2023-05-21T21:55:15.254Z,21.19
2023-05-21T21:57:41.956Z,21.13
2023-05-21T22:00:09.033Z,21.17
2023-05-21T22:02:35.702Z,21.21
2023-05-21T22:05:02.539Z,21.11
2023-05-21T22:07:29.312Z,21.05
2023-05-21T22:09:56.006Z,20.99
2023-05-21T22:12:22.708Z,21.04
2023-05-21T22:14:49.445Z,21.04
2023-05-21T22:17:16.094Z,21.07
2023-05-21T22:19:42.714Z,20.99
2023-05-21T22:22:09.352Z,21.05
2023-05-21T22:24:36.281Z,20.99
2023-05-21T22:27:03.086Z,21.03
2023-05-21T22:29:29.732Z,21.03
2023-05-21T22:31:56.580Z,20.95
2023-05-21T22:34:23.269Z,20.90
2023-05-21T22:36:49.915Z,20.86
2023-05-21T22:39:17.263Z,20.86
2023-05-21T22:41:43.891Z,20.90
2023-05-21T22:44:10.542Z,20.79
2023-05-21T22:46:37.277Z,20.86
2023-05-21T22:49:04.079Z,20.95
2023-05-21T22:51:30.765Z,20.95
2023-05-21T22:53:57.408Z,21.01
2023-05-21T22:56:24.095Z,21.02
2023-05-21T22:58:50.734Z,20.93
2023-05-21T23:01:17.600Z,20.76
2023-05-21T23:03:44.360Z,20.79
2023-05-21T23:06:11.176Z,20.81
2023-05-21T23:08:37.855Z,20.81
2023-05-21T23:11:04.581Z,20.69
2023-05-21T23:13:31.288Z,20.65
2023-05-21T23:15:57.998Z,20.68
2023-05-21T23:18:25.495Z,20.71
2023-05-21T23:20:52.155Z,20.75
2023-05-21T23:23:18.800Z,20.79
2023-05-21T23:25:45.499Z,20.79
2023-05-21T23:28:12.206Z,20.75
2023-05-21T23:30:39.172Z,20.63
2023-05-21T23:33:06.134Z,20.54
2023-05-21T23:35:32.910Z,20.47
2023-05-21T23:37:59.582Z,20.39
2023-05-21T23:40:26.226Z,20.35
2023-05-21T23:42:52.872Z,20.41
2023-05-21T23:45:19.703Z,20.44
2023-05-21T23:47:46.457Z,20.43
2023-05-21T23:50:13.161Z,20.32
2023-05-21T23:52:39.837Z,20.18
2023-05-21T23:55:07.387Z,20.09
2023-05-21T23:57:34.055Z,20.00
